createdAt,value
2017-01-22T00:00:34.912Z,101485
2017-01-22T00:01:35.462Z,101487
2017-01-22T00:02:35.016Z,101495
2017-01-22T00:03:35.629Z,101489
2017-01-22T00:04:35.744Z,101487
2017-01-22T00:05:35.169Z,101486
2017-01-22T00:06:35.774Z,101493
2017-01-22T00:07:35.803Z,101491
2017-01-22T00:08:36.190Z,101492
2017-01-22T00:09:35.356Z,101492
2017-01-22T00:10:36.041Z,101484
2017-01-22T00:11:35.386Z,101483
2017-01-22T00:12:35.969Z,101488
2017-01-22T00:13:36.713Z,101487
2017-01-22T00:14:36.078Z,101486
2017-01-22T00:15:35.561Z,101489
2017-01-22T00:16:35.544Z,101487
2017-01-22T00:17:36.233Z,101488
2017-01-22T00:18:35.721Z,101488
2017-01-22T00:19:35.731Z,101490
2017-01-22T00:20:36.296Z,101488
2017-01-22T00:21:36.335Z,101490
2017-01-22T00:22:35.943Z,101489
2017-01-22T00:23:36.450Z,101491
2017-01-22T00:24:36.556Z,101489
2017-01-22T00:25:36.569Z,101490
2017-01-22T00:26:36.600Z,101493
2017-01-22T00:27:36.138Z,101493
2017-01-22T00:28:36.223Z,101495
2017-01-22T00:29:36.862Z,101495
2017-01-22T00:30:36.895Z,101496
2017-01-22T00:31:36.416Z,101498
2017-01-22T00:32:36.911Z,101497
2017-01-22T00:33:36.458Z,101498
2017-01-22T00:34:37.049Z,101499
2017-01-22T00:35:36.532Z,101497
2017-01-22T00:36:36.628Z,101495
2017-01-22T00:37:36.609Z,101493
2017-01-22T00:38:37.244Z,101496
2017-01-22T00:39:37.280Z,101494
2017-01-22T00:40:37.996Z,101493
2017-01-22T00:41:37.426Z,101493
2017-01-22T00:42:36.911Z,101494
2017-01-22T00:43:37.491Z,101495
2017-01-22T00:44:38.323Z,101488
2017-01-22T00:45:37.130Z,101484
2017-01-22T00:46:38.377Z,101491
2017-01-22T00:47:37.198Z,101492
2017-01-22T00:48:37.303Z,101492
2017-01-22T00:49:38.917Z,101493
2017-01-22T00:50:37.447Z,101494
2017-01-22T00:51:38.037Z,101493
2017-01-22T00:52:37.500Z,101496
2017-01-22T00:53:38.348Z,101494
2017-01-22T00:54:37.566Z,101495
2017-01-22T00:55:37.643Z,101492
2017-01-22T00:56:37.722Z,101491
2017-01-22T00:57:37.820Z,101495
2017-01-22T00:58:38.382Z,101496
2017-01-22T00:59:38.368Z,101490
2017-01-22T01:00:37.987Z,101492
2017-01-22T01:01:38.544Z,101484
2017-01-22T01:02:38.083Z,101483
2017-01-22T01:03:38.129Z,101492
2017-01-22T01:04:38.722Z,101491
2017-01-22T01:05:38.811Z,101491
2017-01-22T01:06:38.854Z,101490
2017-01-22T01:07:38.318Z,101489
2017-01-22T01:08:39.252Z,101490
2017-01-22T01:09:39.015Z,101493
2017-01-22T01:10:39.086Z,101490
2017-01-22T01:11:39.143Z,101495
2017-01-22T01:12:38.662Z,101495
2017-01-22T01:13:39.235Z,101492
2017-01-22T01:14:38.707Z,101493
2017-01-22T01:15:39.323Z,101491
2017-01-22T01:16:39.377Z,101493
2017-01-22T01:17:39.337Z,101496
2017-01-22T01:18:39.482Z,101497
2017-01-22T01:19:39.507Z,101500
2017-01-22T01:20:38.999Z,101497
2017-01-22T01:21:39.532Z,101493
2017-01-22T01:22:39.618Z,101496
2017-01-22T01:23:39.081Z,101505
2017-01-22T01:24:39.689Z,101498
2017-01-22T01:25:39.209Z,101502
2017-01-22T01:26:39.801Z,101499
2017-01-22T01:27:39.846Z,101498
2017-01-22T01:28:39.431Z,101500
2017-01-22T01:29:39.985Z,101501
2017-01-22T01:30:39.501Z,101501
2017-01-22T01:31:40.111Z,101504
2017-01-22T01:32:40.094Z,101503
2017-01-22T01:33:39.632Z,101499
2017-01-22T01:34:39.620Z,101497
2017-01-22T01:35:39.654Z,101497
2017-01-22T01:36:40.285Z,101498
2017-01-22T01:37:40.331Z,101500
2017-01-22T01:38:39.891Z,101502
2017-01-22T01:39:39.880Z,101497
2017-01-22T01:40:40.464Z,101500
2017-01-22T01:41:40.530Z,101497
2017-01-22T01:42:40.051Z,101490
2017-01-22T01:43:40.684Z,101496
2017-01-22T01:44:40.046Z,101494
2017-01-22T01:45:40.563Z,101487
2017-01-22T01:46:40.111Z,101491
2017-01-22T01:47:40.641Z,101489
2017-01-22T01:48:40.682Z,101491
2017-01-22T01:49:40.217Z,101485
2017-01-22T01:50:41.455Z,101483
2017-01-22T01:51:40.834Z,101483
2017-01-22T01:52:40.321Z,101484
2017-01-22T01:53:40.968Z,101481
2017-01-22T01:54:40.537Z,101477
2017-01-22T01:55:41.051Z,101478
2017-01-22T01:56:41.174Z,101480
2017-01-22T01:57:41.179Z,101481
2017-01-22T01:58:40.743Z,101482
2017-01-22T01:59:41.512Z,101473
2017-01-22T02:00:41.444Z,101480
2017-01-22T02:01:41.587Z,101476
2017-01-22T02:02:40.965Z,101482
2017-01-22T02:03:41.592Z,101476
2017-01-22T02:04:41.724Z,101480
2017-01-22T02:05:41.685Z,101473
2017-01-22T02:06:41.748Z,101479
2017-01-22T02:07:41.718Z,101479
2017-01-22T02:08:41.315Z,101484
2017-01-22T02:09:41.360Z,101477
2017-01-22T02:10:41.885Z,101474
2017-01-22T02:11:41.896Z,101486
2017-01-22T02:12:41.447Z,101480
2017-01-22T02:13:41.492Z,101480
2017-01-22T02:14:42.062Z,101479
2017-01-22T02:15:41.499Z,101482
2017-01-22T02:16:41.579Z,101476
2017-01-22T02:17:42.280Z,101483
2017-01-22T02:18:41.733Z,101480
2017-01-22T02:19:42.244Z,101480
2017-01-22T02:20:42.457Z,101471
2017-01-22T02:21:42.827Z,101474
2017-01-22T02:22:41.760Z,101472
2017-01-22T02:23:41.784Z,101473
2017-01-22T02:24:41.919Z,101471
2017-01-22T02:25:42.583Z,101469
2017-01-22T02:26:41.954Z,101470
2017-01-22T02:27:42.041Z,101470
2017-01-22T02:28:42.018Z,101478
2017-01-22T02:29:42.593Z,101473
2017-01-22T02:30:42.719Z,101477
2017-01-22T02:31:42.186Z,101468
2017-01-22T02:32:42.691Z,101478
2017-01-22T02:33:42.812Z,101473
2017-01-22T02:34:42.787Z,101474
2017-01-22T02:35:42.963Z,101470
2017-01-22T02:36:42.295Z,101470
2017-01-22T02:37:42.366Z,101471
2017-01-22T02:38:42.955Z,101468
2017-01-22T02:39:43.096Z,101468
2017-01-22T02:40:42.519Z,101462
2017-01-22T02:41:43.171Z,101466
2017-01-22T02:42:43.224Z,101466
2017-01-22T02:43:43.341Z,101461
2017-01-22T02:44:42.913Z,101466
2017-01-22T02:45:43.295Z,101466
2017-01-22T02:46:43.015Z,101467
2017-01-22T02:47:43.122Z,101459
2017-01-22T02:48:43.636Z,101464
2017-01-22T02:49:43.206Z,101459
2017-01-22T02:50:43.768Z,101459
2017-01-22T02:51:43.263Z,101454
2017-01-22T02:52:43.342Z,101459
2017-01-22T02:53:43.400Z,101461
2017-01-22T02:54:43.964Z,101454
2017-01-22T02:55:43.460Z,101460
2017-01-22T02:56:44.106Z,101458
2017-01-22T02:57:43.570Z,101454
2017-01-22T02:58:44.199Z,101460
2017-01-22T02:59:44.268Z,101461
2017-01-22T03:00:44.303Z,101453
2017-01-22T03:01:43.792Z,101456
2017-01-22T03:02:44.372Z,101454
2017-01-22T03:03:43.898Z,101452
2017-01-22T03:04:43.939Z,101458
2017-01-22T03:05:44.690Z,101456
2017-01-22T03:06:44.597Z,101459
2017-01-22T03:07:44.076Z,101462
2017-01-22T03:08:44.093Z,101460
2017-01-22T03:09:44.742Z,101459
2017-01-22T03:10:44.351Z,101460
2017-01-22T03:11:44.279Z,101460
2017-01-22T03:12:44.333Z,101456
2017-01-22T03:13:44.858Z,101458
2017-01-22T03:14:44.887Z,101457
2017-01-22T03:15:44.391Z,101456
2017-01-22T03:16:44.487Z,101455
2017-01-22T03:17:44.447Z,101456
2017-01-22T03:18:44.504Z,101459
2017-01-22T03:19:45.098Z,101459
2017-01-22T03:20:44.657Z,101461
2017-01-22T03:21:44.736Z,101457
2017-01-22T03:22:45.386Z,101461
2017-01-22T03:23:46.087Z,101460
2017-01-22T03:24:44.953Z,101460
2017-01-22T03:25:46.064Z,101461
2017-01-22T03:28:55.125Z,101455
2017-01-22T03:29:55.117Z,101460
2017-01-22T03:30:55.123Z,101454
2017-01-22T03:31:54.683Z,101456
2017-01-22T03:32:54.683Z,101456
2017-01-22T03:33:54.682Z,101462
2017-01-22T03:34:54.821Z,101456
2017-01-22T03:35:55.370Z,101456
2017-01-22T03:36:55.381Z,101453
2017-01-22T03:37:54.971Z,101458
2017-01-22T03:38:55.020Z,101459
2017-01-22T03:39:55.099Z,101462
2017-01-22T03:40:55.633Z,101462
2017-01-22T03:41:55.648Z,101464
2017-01-22T03:42:55.655Z,101466
2017-01-22T03:43:55.760Z,101463
2017-01-22T03:44:55.769Z,101468
2017-01-22T03:45:55.329Z,101470
2017-01-22T03:46:55.440Z,101461
2017-01-22T03:47:55.470Z,101467
2017-01-22T03:48:56.641Z,101468
2017-01-22T03:49:55.574Z,101463
2017-01-22T03:50:55.672Z,101470
2017-01-22T03:51:55.776Z,101464
2017-01-22T03:52:56.334Z,101468
2017-01-22T03:53:55.799Z,101468
2017-01-22T03:54:56.371Z,101467
2017-01-22T03:55:56.483Z,101465
2017-01-22T03:56:56.502Z,101466
2017-01-22T03:57:56.015Z,101465
2017-01-22T03:58:56.084Z,101461
2017-01-22T03:59:56.669Z,101463
2017-01-22T04:00:56.710Z,101462
2017-01-22T04:01:56.705Z,101461
2017-01-22T04:02:56.374Z,101456
2017-01-22T04:03:56.359Z,101456
2017-01-22T04:04:56.450Z,101452
2017-01-22T04:05:56.437Z,101448
2017-01-22T04:06:56.494Z,101447
2017-01-22T04:07:56.497Z,101452
2017-01-22T04:08:57.067Z,101450
2017-01-22T04:09:57.115Z,101448
2017-01-22T04:10:57.215Z,101446
2017-01-22T04:11:56.706Z,101445
2017-01-22T04:12:56.794Z,101447
2017-01-22T04:13:56.894Z,101444
2017-01-22T04:14:57.465Z,101437
2017-01-22T04:15:57.527Z,101437
2017-01-22T04:16:57.050Z,101445
2017-01-22T04:17:57.666Z,101442
2017-01-22T04:18:57.135Z,101439
2017-01-22T04:19:57.799Z,101436
2017-01-22T04:20:57.391Z,101435
2017-01-22T04:21:57.950Z,101433
2017-01-22T04:22:58.025Z,101434
2017-01-22T04:23:57.527Z,101433
2017-01-22T04:24:58.066Z,101438
2017-01-22T04:25:57.612Z,101439
2017-01-22T04:26:58.258Z,101438
2017-01-22T04:27:57.685Z,101437
2017-01-22T04:28:57.725Z,101434
2017-01-22T04:29:58.297Z,101435
2017-01-22T04:30:57.845Z,101432
2017-01-22T04:31:58.500Z,101433
2017-01-22T04:32:57.975Z,101432
2017-01-22T04:33:58.533Z,101435
2017-01-22T04:34:58.019Z,101435
2017-01-22T04:35:58.157Z,101436
2017-01-22T04:36:58.696Z,101435
2017-01-22T04:37:58.145Z,101440
2017-01-22T04:38:58.206Z,101430
2017-01-22T04:39:58.920Z,101430
2017-01-22T04:40:58.353Z,101433
2017-01-22T04:41:59.015Z,101436
2017-01-22T04:42:58.554Z,101428
2017-01-22T04:43:58.553Z,101437
2017-01-22T04:44:59.134Z,101435
2017-01-22T04:45:59.235Z,101436
2017-01-22T04:46:59.357Z,101434
2017-01-22T04:47:58.837Z,101432
2017-01-22T04:48:58.902Z,101432
2017-01-22T04:49:59.411Z,101433
2017-01-22T04:50:59.499Z,101432
2017-01-22T04:52:00.250Z,101435
2017-01-22T04:52:59.110Z,101438
2017-01-22T04:53:59.145Z,101432
2017-01-22T04:54:59.668Z,101433
2017-01-22T04:55:59.239Z,101433
2017-01-22T04:56:59.864Z,101430
2017-01-22T04:57:59.306Z,101432
2017-01-22T04:58:59.402Z,101432
2017-01-22T04:59:59.912Z,101433
2017-01-22T05:00:59.436Z,101435
2017-01-22T05:01:59.524Z,101432
2017-01-22T05:03:00.027Z,101435
2017-01-22T05:04:00.103Z,101429
2017-01-22T05:05:00.237Z,101436
2017-01-22T05:05:59.724Z,101433
2017-01-22T05:07:00.317Z,101434
2017-01-22T05:08:00.400Z,101434
2017-01-22T05:08:59.845Z,101435
2017-01-22T05:10:00.385Z,101436
2017-01-22T05:10:59.870Z,101440
2017-01-22T05:11:59.921Z,101438
2017-01-22T05:13:00.485Z,101441
2017-01-22T05:14:00.477Z,101439
2017-01-22T05:15:00.534Z,101439
2017-01-22T05:16:00.043Z,101438
2017-01-22T05:17:00.648Z,101440
2017-01-22T05:18:00.655Z,101438
2017-01-22T05:19:00.701Z,101438
2017-01-22T05:20:00.165Z,101440
2017-01-22T05:21:00.812Z,101443
2017-01-22T05:22:01.467Z,101442
2017-01-22T05:23:00.274Z,101441
2017-01-22T05:24:00.851Z,101445
2017-01-22T05:25:00.938Z,101447
2017-01-22T05:26:01.013Z,101445
2017-01-22T05:27:00.511Z,101444
2017-01-22T05:28:01.147Z,101439
2017-01-22T05:29:01.368Z,101443
2017-01-22T05:30:01.224Z,101439
2017-01-22T05:31:01.279Z,101442
2017-01-22T05:32:00.804Z,101441
2017-01-22T05:33:01.393Z,101443
2017-01-22T05:34:01.403Z,101441
2017-01-22T05:35:01.012Z,101443
2017-01-22T05:36:01.984Z,101442
2017-01-22T05:37:01.120Z,101438
2017-01-22T05:38:01.144Z,101443
2017-01-22T05:39:01.798Z,101442
2017-01-22T05:40:01.806Z,101444
2017-01-22T05:41:01.339Z,101443
2017-01-22T05:42:02.299Z,101442
2017-01-22T05:43:02.066Z,101440
2017-01-22T05:44:01.582Z,101437
2017-01-22T05:45:01.598Z,101437
2017-01-22T05:46:02.151Z,101436
2017-01-22T05:47:02.287Z,101435
2017-01-22T05:48:02.316Z,101430
2017-01-22T05:49:02.295Z,101430
2017-01-22T05:50:01.836Z,101437
2017-01-22T05:51:01.887Z,101437
2017-01-22T05:52:01.978Z,101434
2017-01-22T05:53:02.523Z,101439
2017-01-22T05:54:02.047Z,101435
2017-01-22T05:55:02.655Z,101431
2017-01-22T05:56:02.127Z,101429
2017-01-22T05:57:02.112Z,101428
2017-01-22T05:58:02.717Z,101430
2017-01-22T05:59:02.310Z,101430
2017-01-22T06:00:02.262Z,101425
2017-01-22T06:01:02.277Z,101422
2017-01-22T06:02:02.859Z,101425
2017-01-22T06:03:02.344Z,101429
2017-01-22T06:04:02.978Z,101421
2017-01-22T06:05:03.107Z,101428
2017-01-22T06:06:03.167Z,101423
2017-01-22T06:07:02.729Z,101424
2017-01-22T06:08:03.357Z,101428
2017-01-22T06:09:02.921Z,101416
2017-01-22T06:10:03.569Z,101417
2017-01-22T06:11:02.970Z,101423
2017-01-22T06:12:03.053Z,101416
2017-01-22T06:13:03.687Z,101416
2017-01-22T06:14:03.676Z,101418
2017-01-22T06:15:03.247Z,101413
2017-01-22T06:16:03.259Z,101415
2017-01-22T06:17:03.835Z,101413
2017-01-22T06:18:03.315Z,101415
2017-01-22T06:19:03.364Z,101421
2017-01-22T06:20:03.898Z,101422
2017-01-22T06:21:03.379Z,101425
2017-01-22T06:22:03.948Z,101425
2017-01-22T06:23:03.358Z,101426
2017-01-22T06:24:03.506Z,101429
2017-01-22T06:25:04.093Z,101431
2017-01-22T06:26:03.646Z,101429
2017-01-22T06:27:03.680Z,101429
2017-01-22T06:28:03.742Z,101428
2017-01-22T06:29:03.795Z,101430
2017-01-22T06:30:04.422Z,101433
2017-01-22T06:31:04.462Z,101423
2017-01-22T06:32:03.956Z,101426
2017-01-22T06:33:03.965Z,101426
2017-01-22T06:34:04.592Z,101430
2017-01-22T06:35:04.663Z,101429
2017-01-22T06:36:04.786Z,101424
2017-01-22T06:37:04.794Z,101425
2017-01-22T06:38:04.808Z,101422
2017-01-22T06:39:04.352Z,101423
2017-01-22T06:40:04.326Z,101421
2017-01-22T06:41:04.955Z,101423
2017-01-22T06:42:04.480Z,101421
2017-01-22T06:43:04.557Z,101417
2017-01-22T06:44:05.178Z,101416
2017-01-22T06:45:05.214Z,101420
2017-01-22T06:46:04.713Z,101421
2017-01-22T06:47:04.792Z,101419
2017-01-22T06:48:05.361Z,101427
2017-01-22T06:49:04.824Z,101425
2017-01-22T06:50:05.468Z,101426
2017-01-22T06:51:04.975Z,101427
2017-01-22T06:52:05.586Z,101427
2017-01-22T06:53:05.108Z,101428
2017-01-22T06:54:05.746Z,101429
2017-01-22T06:55:05.241Z,101428
2017-01-22T06:56:06.516Z,101434
2017-01-22T06:57:05.907Z,101430
2017-01-22T06:58:05.964Z,101427
2017-01-22T06:59:05.487Z,101429
2017-01-22T07:00:05.557Z,101428
2017-01-22T07:01:06.076Z,101429
2017-01-22T07:02:06.202Z,101425
2017-01-22T07:03:05.646Z,101422
2017-01-22T07:04:05.673Z,101426
2017-01-22T07:05:05.743Z,101429
2017-01-22T07:06:05.761Z,101431
2017-01-22T07:07:05.769Z,101430
2017-01-22T07:08:05.945Z,101425
2017-01-22T07:09:05.942Z,101427
2017-01-22T07:10:06.446Z,101427
2017-01-22T07:11:06.614Z,101428
2017-01-22T07:12:06.668Z,101425
2017-01-22T07:13:06.241Z,101427
2017-01-22T07:14:06.211Z,101427
2017-01-22T07:15:06.239Z,101425
2017-01-22T07:16:06.986Z,101426
2017-01-22T07:17:06.864Z,101425
2017-01-22T07:18:06.963Z,101422
2017-01-22T07:19:06.444Z,101422
2017-01-22T07:20:06.534Z,101427
2017-01-22T07:21:06.547Z,101421
2017-01-22T07:22:07.047Z,101426
2017-01-22T07:23:07.111Z,101426
2017-01-22T07:24:06.595Z,101425
2017-01-22T07:25:07.214Z,101426
2017-01-22T07:26:06.675Z,101422
2017-01-22T07:27:06.671Z,101430
2017-01-22T07:28:06.681Z,101430
2017-01-22T07:29:06.668Z,101433
2017-01-22T07:30:06.778Z,101431
2017-01-22T07:31:06.802Z,101432
2017-01-22T07:32:06.763Z,101439
2017-01-22T07:33:06.813Z,101439
2017-01-22T07:34:07.390Z,101441
2017-01-22T07:35:07.466Z,101444
2017-01-22T07:36:07.527Z,101440
2017-01-22T07:37:07.021Z,101439
2017-01-22T07:38:07.602Z,101441
2017-01-22T07:39:07.679Z,101435
2017-01-22T07:40:07.145Z,101441
2017-01-22T07:41:07.180Z,101440
2017-01-22T07:42:07.294Z,101439
2017-01-22T07:43:07.297Z,101438
2017-01-22T07:44:07.369Z,101441
2017-01-22T07:45:07.921Z,101445
2017-01-22T07:46:07.954Z,101445
2017-01-22T07:47:07.428Z,101436
2017-01-22T07:48:08.138Z,101442
2017-01-22T07:49:08.052Z,101441
2017-01-22T07:50:08.168Z,101433
2017-01-22T07:51:07.663Z,101444
2017-01-22T07:52:07.727Z,101439
2017-01-22T07:53:07.880Z,101434
2017-01-22T07:54:07.950Z,101441
2017-01-22T07:55:07.949Z,101437
2017-01-22T07:56:07.986Z,101438
2017-01-22T07:57:08.090Z,101441
2017-01-22T07:58:08.167Z,101436
2017-01-22T07:59:08.787Z,101432
2017-01-22T08:00:08.301Z,101436
2017-01-22T08:01:08.877Z,101431
2017-01-22T08:02:08.954Z,101437
2017-01-22T08:03:09.028Z,101440
2017-01-22T08:04:08.503Z,101433
2017-01-22T08:05:08.635Z,101437
2017-01-22T08:06:08.747Z,101436
2017-01-22T08:07:09.306Z,101438
2017-01-22T08:08:09.377Z,101437
2017-01-22T08:09:08.879Z,101438
2017-01-22T08:10:09.028Z,101440
2017-01-22T08:11:09.053Z,101439
2017-01-22T08:12:09.624Z,101435
2017-01-22T08:13:09.631Z,101436
2017-01-22T08:14:09.654Z,101435
2017-01-22T08:15:09.778Z,101434
2017-01-22T08:16:09.802Z,101435
2017-01-22T08:17:09.317Z,101439
2017-01-22T08:18:09.339Z,101436
2017-01-22T08:19:09.433Z,101439
2017-01-22T08:20:09.499Z,101440
2017-01-22T08:21:10.059Z,101437
2017-01-22T08:22:10.120Z,101435
2017-01-22T08:23:10.168Z,101438
2017-01-22T08:24:09.651Z,101437
2017-01-22T08:25:09.703Z,101444
2017-01-22T08:26:10.274Z,101442
2017-01-22T08:27:09.799Z,101445
2017-01-22T08:28:10.313Z,101443
2017-01-22T08:29:09.867Z,101449
2017-01-22T08:30:10.412Z,101448
2017-01-22T08:31:10.428Z,101447
2017-01-22T08:32:10.646Z,101453
2017-01-22T08:33:10.102Z,101453
2017-01-22T08:34:10.188Z,101447
2017-01-22T08:35:10.266Z,101449
2017-01-22T08:36:10.366Z,101446
2017-01-22T08:37:10.974Z,101450
2017-01-22T08:38:10.992Z,101445
2017-01-22T08:39:10.569Z,101448
2017-01-22T08:40:10.663Z,101450
2017-01-22T08:41:11.247Z,101450
2017-01-22T08:42:10.750Z,101453
2017-01-22T08:43:10.813Z,101452
2017-01-22T08:44:10.888Z,101449
2017-01-22T08:45:11.491Z,101449
2017-01-22T08:46:11.565Z,101446
2017-01-22T08:47:11.648Z,101445
2017-01-22T08:48:11.691Z,101442
2017-01-22T08:49:11.809Z,101444
2017-01-22T08:50:11.839Z,101441
2017-01-22T08:51:11.367Z,101443
2017-01-22T08:52:11.382Z,101447
2017-01-22T08:53:11.525Z,101444
2017-01-22T08:54:12.039Z,101443
2017-01-22T08:55:11.539Z,101442
2017-01-22T08:56:11.531Z,101445
2017-01-22T08:57:12.133Z,101446
2017-01-22T08:58:11.695Z,101447
2017-01-22T08:59:11.639Z,101447
2017-01-22T09:00:12.254Z,101442
2017-01-22T09:01:12.309Z,101444
2017-01-22T09:02:11.805Z,101447
2017-01-22T09:03:11.860Z,101443
2017-01-22T09:04:12.400Z,101445
2017-01-22T09:05:12.505Z,101436
2017-01-22T09:06:11.970Z,101443
2017-01-22T09:07:13.383Z,101447
2017-01-22T09:08:12.673Z,101445
2017-01-22T09:09:12.227Z,101444
2017-01-22T09:10:12.971Z,101448
2017-01-22T09:11:12.840Z,101438
2017-01-22T09:12:12.847Z,101442
2017-01-22T09:13:12.415Z,101445
2017-01-22T09:14:12.465Z,101445
2017-01-22T09:15:12.487Z,101446
2017-01-22T09:16:13.284Z,101438
2017-01-22T09:17:13.143Z,101447
2017-01-22T09:18:12.578Z,101448
2017-01-22T09:19:12.694Z,101447
2017-01-22T09:20:12.648Z,101448
2017-01-22T09:21:13.307Z,101449
2017-01-22T09:22:12.822Z,101451
2017-01-22T09:23:13.423Z,101446
2017-01-22T09:24:12.950Z,101454
2017-01-22T09:25:12.983Z,101455
2017-01-22T09:26:13.077Z,101454
2017-01-22T09:27:13.564Z,101455
2017-01-22T09:28:13.071Z,101454
2017-01-22T09:29:13.117Z,101454
2017-01-22T09:30:13.742Z,101451
2017-01-22T09:31:13.812Z,101450
2017-01-22T09:32:13.907Z,101453
2017-01-22T09:33:13.929Z,101448
2017-01-22T09:34:13.951Z,101453
2017-01-22T09:35:13.446Z,101454
2017-01-22T09:36:13.446Z,101451
2017-01-22T09:37:14.009Z,101457
2017-01-22T09:38:14.068Z,101451
2017-01-22T09:39:13.595Z,101447
2017-01-22T09:40:13.670Z,101453
2017-01-22T09:41:14.345Z,101453
2017-01-22T09:42:13.798Z,101451
2017-01-22T09:43:14.524Z,101451
2017-01-22T09:44:16.262Z,101445
2017-01-22T09:45:13.958Z,101454
2017-01-22T09:46:14.048Z,101447
2017-01-22T09:47:14.623Z,101452
2017-01-22T09:48:14.175Z,101454
2017-01-22T09:49:14.820Z,101450
2017-01-22T09:50:15.416Z,101450
2017-01-22T09:51:14.888Z,101445
2017-01-22T09:52:14.894Z,101450
2017-01-22T09:53:14.368Z,101456
2017-01-22T09:54:15.021Z,101447
2017-01-22T09:55:15.045Z,101455
2017-01-22T09:56:15.102Z,101449
2017-01-22T09:57:15.171Z,101454
2017-01-22T09:58:15.243Z,101453
2017-01-22T09:59:15.283Z,101450
2017-01-22T10:00:14.814Z,101455
2017-01-22T10:01:14.854Z,101454
2017-01-22T10:02:14.957Z,101457
2017-01-22T10:03:14.986Z,101458
2017-01-22T10:04:15.060Z,101450
2017-01-22T10:05:15.110Z,101456
2017-01-22T10:06:15.134Z,101448
2017-01-22T10:07:15.211Z,101449
2017-01-22T10:08:15.203Z,101451
2017-01-22T10:09:15.194Z,101442
2017-01-22T10:10:15.199Z,101448
2017-01-22T10:11:15.874Z,101444
2017-01-22T10:12:15.798Z,101444
2017-01-22T10:13:15.336Z,101445
2017-01-22T10:14:15.949Z,101441
2017-01-22T10:15:16.008Z,101445
2017-01-22T10:16:15.453Z,101449
2017-01-22T10:17:15.508Z,101438
2017-01-22T10:18:15.522Z,101444
2017-01-22T10:19:15.722Z,101442
2017-01-22T10:20:16.161Z,101438
2017-01-22T10:21:15.665Z,101442
2017-01-22T10:22:16.231Z,101442
2017-01-22T10:23:16.286Z,101434
2017-01-22T10:24:15.823Z,101438
2017-01-22T10:25:15.909Z,101438
2017-01-22T10:26:16.475Z,101437
2017-01-22T10:27:16.533Z,101438
2017-01-22T10:28:16.600Z,101442
2017-01-22T10:29:16.147Z,101438
2017-01-22T10:30:16.715Z,101440
2017-01-22T10:31:16.753Z,101439
2017-01-22T10:32:16.277Z,101439
2017-01-22T10:33:16.248Z,101442
2017-01-22T10:34:17.443Z,101441
2017-01-22T10:35:16.873Z,101441
2017-01-22T10:36:16.912Z,101441
2017-01-22T10:37:17.031Z,101434
2017-01-22T10:38:16.454Z,101437
2017-01-22T10:39:17.033Z,101437
2017-01-22T10:40:17.067Z,101430
2017-01-22T10:41:17.107Z,101430
2017-01-22T10:42:16.630Z,101431
2017-01-22T10:43:17.318Z,101428
2017-01-22T10:44:17.289Z,101429
2017-01-22T10:45:16.789Z,101430
2017-01-22T10:46:16.885Z,101425
2017-01-22T10:47:16.892Z,101426
2017-01-22T10:48:16.904Z,101427
2017-01-22T10:49:17.093Z,101425
2017-01-22T10:50:17.803Z,101425
2017-01-22T10:51:17.725Z,101424
2017-01-22T10:52:17.139Z,101421
2017-01-22T10:53:17.188Z,101419
2017-01-22T10:54:17.773Z,101422
2017-01-22T10:55:17.254Z,101420
2017-01-22T10:56:17.853Z,101422
2017-01-22T10:57:17.419Z,101416
2017-01-22T10:58:17.400Z,101419
2017-01-22T10:59:17.535Z,101417
2017-01-22T11:00:18.003Z,101423
2017-01-22T11:01:17.593Z,101425
2017-01-22T11:02:17.599Z,101425
2017-01-22T11:03:18.105Z,101424
2017-01-22T11:04:17.633Z,101421
2017-01-22T11:05:18.438Z,101423
2017-01-22T11:06:17.772Z,101425
2017-01-22T11:07:18.272Z,101423
2017-01-22T11:08:18.331Z,101423
2017-01-22T11:09:18.363Z,101423
2017-01-22T11:10:17.918Z,101422
2017-01-22T11:11:17.997Z,101419
2017-01-22T11:12:18.054Z,101418
2017-01-22T11:13:18.632Z,101417
2017-01-22T11:14:19.365Z,101417
2017-01-22T11:15:18.680Z,101417
2017-01-22T11:16:18.132Z,101414
2017-01-22T11:17:18.243Z,101414
2017-01-22T11:18:18.767Z,101412
2017-01-22T11:19:18.233Z,101412
2017-01-22T11:20:18.246Z,101411
2017-01-22T11:21:18.852Z,101412
2017-01-22T11:22:18.867Z,101410
2017-01-22T11:23:18.946Z,101404
2017-01-22T11:24:19.050Z,101403
2017-01-22T11:25:19.157Z,101395
2017-01-22T11:26:18.567Z,101391
2017-01-22T11:27:18.610Z,101393
2017-01-22T11:28:19.196Z,101399
2017-01-22T11:29:19.303Z,101394
2017-01-22T11:30:19.394Z,101392
2017-01-22T11:31:19.373Z,101391
2017-01-22T11:32:19.481Z,101387
2017-01-22T11:33:19.550Z,101393
2017-01-22T11:34:19.583Z,101393
2017-01-22T11:35:19.103Z,101383
2017-01-22T11:36:19.695Z,101379
2017-01-22T11:37:19.731Z,101379
2017-01-22T11:38:19.206Z,101384
2017-01-22T11:39:19.786Z,101383
2017-01-22T11:40:19.821Z,101383
2017-01-22T11:41:19.330Z,101375
2017-01-22T11:42:19.892Z,101372
2017-01-22T11:43:20.026Z,101371
2017-01-22T11:44:19.509Z,101368
2017-01-22T11:45:19.616Z,101373
2017-01-22T11:46:19.657Z,101372
2017-01-22T11:47:20.313Z,101372
2017-01-22T11:48:20.320Z,101363
2017-01-22T11:49:21.866Z,101360
2017-01-22T11:50:20.465Z,101360
2017-01-22T11:51:20.548Z,101359
2017-01-22T11:52:20.618Z,101355
2017-01-22T11:53:20.136Z,101352
2017-01-22T11:54:20.132Z,101348
2017-01-22T11:55:20.288Z,101346
2017-01-22T11:56:20.360Z,101339
2017-01-22T11:57:20.953Z,101346
2017-01-22T11:58:20.476Z,101347
2017-01-22T11:59:20.563Z,101345
2017-01-22T12:00:20.622Z,101342
2017-01-22T12:01:21.221Z,101334
2017-01-22T12:02:21.312Z,101330
2017-01-22T12:03:20.768Z,101332
2017-01-22T12:04:21.265Z,101332
2017-01-22T12:05:21.317Z,101330
2017-01-22T12:06:21.401Z,101328
2017-01-22T12:07:20.904Z,101329
2017-01-22T12:08:21.516Z,101325
2017-01-22T12:09:20.995Z,101323
2017-01-22T12:10:21.536Z,101326
2017-01-22T12:11:21.681Z,101323
2017-01-22T12:12:21.072Z,101316
2017-01-22T12:13:21.616Z,101320
2017-01-22T12:14:21.679Z,101318
2017-01-22T12:15:21.763Z,101311
2017-01-22T12:16:21.248Z,101321
2017-01-22T12:17:21.772Z,101320
2017-01-22T12:18:21.254Z,101319
2017-01-22T12:19:21.291Z,101320
2017-01-22T12:20:21.339Z,101319
2017-01-22T12:21:21.435Z,101318
2017-01-22T12:22:21.955Z,101322
2017-01-22T12:23:21.990Z,101324
2017-01-22T12:24:21.534Z,101322
2017-01-22T12:25:22.142Z,101324
2017-01-22T12:26:22.168Z,101315
2017-01-22T12:27:21.667Z,101316
2017-01-22T12:28:22.309Z,101304
2017-01-22T12:29:21.763Z,101309
2017-01-22T12:30:21.786Z,101307
2017-01-22T12:31:22.454Z,101307